Decoded Metar for KGNB ( in ) (IATA:) | Meteo·Mobile Aviation Weather
aviador You're here:

KGNB Decoded Metar

in
Report Time2019-01-20 10:10:00
UTC Time2019-01-20 10:37:34
Flight Rules vfr VFR
WindCalm
Visibility9999 m
Phenomena:N/A
Clouds:Scattered 028 Hf
Expected CloudBase > 400 ft AGL from Temp-Dew spread
CeilingNone
Temp-9°C
Dew Point-10°C (93% RH)
AAT-12.1°C
QNH1025 hPa
Raw Report
KGNB 201010Z AUTO 00000KT 10SM SCT028 M09/M10 A3028 RMK AO2
T10861104=

Extra information for KGNB:More info

Social comments